createdAt,value
2018-05-09T00:01:05.353Z,55.94
2018-05-09T00:03:32.758Z,55.93
2018-05-09T00:06:00.206Z,55.75
2018-05-09T00:08:27.614Z,55.81
2018-05-09T00:10:55.038Z,55.71
2018-05-09T00:13:22.517Z,56.04
2018-05-09T00:15:49.925Z,56.37
2018-05-09T00:18:17.364Z,56.35
2018-05-09T00:20:44.789Z,56.30
2018-05-09T00:23:12.221Z,56.16
2018-05-09T00:25:39.638Z,56.29
2018-05-09T00:28:07.074Z,56.18
2018-05-09T00:30:34.482Z,56.04
2018-05-09T00:33:01.922Z,56.44
2018-05-09T00:35:29.330Z,56.44
2018-05-09T00:37:56.781Z,56.30
2018-05-09T00:40:24.193Z,56.44
2018-05-09T00:42:51.700Z,56.53
2018-05-09T00:45:19.113Z,56.68
2018-05-09T00:47:46.577Z,56.75
2018-05-09T00:50:14.163Z,57.04
2018-05-09T00:52:41.486Z,57.15
2018-05-09T00:55:08.983Z,56.72
2018-05-09T00:57:36.391Z,56.56
2018-05-09T01:00:03.829Z,56.66
2018-05-09T01:02:31.237Z,56.63
2018-05-09T01:04:58.701Z,56.83
2018-05-09T01:07:26.113Z,56.63
2018-05-09T01:09:53.549Z,56.42
2018-05-09T01:12:20.964Z,55.99
2018-05-09T01:14:48.433Z,56.25
2018-05-09T01:17:15.850Z,56.33
2018-05-09T01:19:43.342Z,56.24
2018-05-09T01:22:10.798Z,56.65
2018-05-09T01:24:38.236Z,56.32
2018-05-09T01:27:05.642Z,56.03
2018-05-09T01:29:33.077Z,55.90
2018-05-09T01:32:01.412Z,55.80
2018-05-09T01:34:28.854Z,55.76
2018-05-09T01:36:56.354Z,56.01
2018-05-09T01:39:23.789Z,56.35
2018-05-09T01:41:51.203Z,56.17
2018-05-09T01:44:18.730Z,56.03
2018-05-09T01:46:46.137Z,56.41
2018-05-09T01:49:13.569Z,56.52
2018-05-09T01:51:40.993Z,56.78
2018-05-09T01:54:08.449Z,56.97
2018-05-09T01:56:35.889Z,56.86
2018-05-09T01:59:03.361Z,56.96
2018-05-09T02:01:30.817Z,57.69
2018-05-09T02:03:58.278Z,57.46
2018-05-09T02:06:25.722Z,57.46
2018-05-09T02:08:53.130Z,58.01
2018-05-09T02:11:20.658Z,58.00
2018-05-09T02:13:48.065Z,58.13
2018-05-09T02:16:15.499Z,58.28
2018-05-09T02:18:42.917Z,57.88
2018-05-09T02:21:10.353Z,57.81
2018-05-09T02:23:37.765Z,58.04
2018-05-09T02:26:05.197Z,58.48
2018-05-09T02:28:32.645Z,58.33
2018-05-09T02:31:00.060Z,58.57
2018-05-09T02:33:27.489Z,58.92
2018-05-09T02:35:54.904Z,58.79
2018-05-09T02:38:22.334Z,58.78
2018-05-09T02:40:49.741Z,59.02
2018-05-09T02:43:17.182Z,59.52
2018-05-09T02:45:44.639Z,59.20
2018-05-09T02:48:12.091Z,59.48
2018-05-09T02:50:39.550Z,60.02
2018-05-09T02:53:07.002Z,60.22
2018-05-09T02:55:34.413Z,60.51
2018-05-09T02:58:01.853Z,60.88
2018-05-09T03:00:29.261Z,60.45
2018-05-09T03:02:56.731Z,61.04
2018-05-09T03:05:24.134Z,61.11
2018-05-09T03:07:51.630Z,61.41
2018-05-09T03:10:19.037Z,61.54
2018-05-09T03:12:46.461Z,61.84
2018-05-09T03:15:13.915Z,62.47
2018-05-09T03:17:42.254Z,62.74
2018-05-09T03:20:09.750Z,62.52
2018-05-09T03:22:37.197Z,62.89
2018-05-09T03:25:04.657Z,63.37
2018-05-09T03:27:32.077Z,62.87
2018-05-09T03:29:59.581Z,62.75
2018-05-09T03:32:27.042Z,62.71
2018-05-09T03:34:54.470Z,62.48
2018-05-09T03:37:22.856Z,62.57
2018-05-09T03:39:50.334Z,63.01
2018-05-09T03:42:17.737Z,62.37
2018-05-09T03:44:45.237Z,62.42
2018-05-09T03:47:12.706Z,62.47
2018-05-09T03:49:40.153Z,62.52
2018-05-09T03:52:07.602Z,62.92
2018-05-09T03:54:35.061Z,62.61
2018-05-09T03:57:02.509Z,62.65
2018-05-09T03:59:29.932Z,63.06
2018-05-09T04:02:09.313Z,63.23
2018-05-09T04:04:48.533Z,63.08
2018-05-09T04:07:27.693Z,63.27
2018-05-09T04:09:55.921Z,62.96
2018-05-09T04:12:23.401Z,62.42
2018-05-09T04:14:50.852Z,62.18
2018-05-09T04:17:19.241Z,62.10
2018-05-09T04:19:46.649Z,61.28
2018-05-09T04:22:14.101Z,60.57
2018-05-09T04:24:41.622Z,60.81
2018-05-09T04:27:09.174Z,61.31
2018-05-09T04:29:36.629Z,60.74
2018-05-09T04:32:04.077Z,60.61
2018-05-09T04:34:31.488Z,59.77
2018-05-09T04:36:59.002Z,59.55
2018-05-09T04:39:27.692Z,59.46
2018-05-09T04:41:55.125Z,59.25
2018-05-09T04:44:22.601Z,58.43
2018-05-09T04:46:50.024Z,57.78
2018-05-09T04:49:17.554Z,57.44
2018-05-09T04:51:44.937Z,57.75
2018-05-09T04:54:12.530Z,57.17
2018-05-09T04:56:39.986Z,56.36
2018-05-09T04:59:07.445Z,55.50
2018-05-09T05:01:34.863Z,55.47
2018-05-09T05:04:02.309Z,54.12
2018-05-09T05:06:29.718Z,53.44
2018-05-09T05:08:57.177Z,52.83
2018-05-09T05:11:24.592Z,52.50
2018-05-09T05:13:51.998Z,51.86
2018-05-09T05:16:19.434Z,50.93
2018-05-09T05:18:46.849Z,50.91
2018-05-09T05:21:14.285Z,50.46
2018-05-09T05:23:41.718Z,50.48
2018-05-09T05:26:09.153Z,50.07
2018-05-09T05:28:36.560Z,49.67
2018-05-09T05:31:04.068Z,49.32
2018-05-09T05:33:33.441Z,49.11
2018-05-09T05:36:00.897Z,48.95
2018-05-09T05:38:28.297Z,48.86
2018-05-09T05:40:55.765Z,48.17
2018-05-09T05:43:23.294Z,47.67
2018-05-09T05:45:50.728Z,47.69
2018-05-09T05:48:18.214Z,47.54
2018-05-09T05:50:45.741Z,47.47
2018-05-09T05:53:13.149Z,46.79
2018-05-09T05:55:40.585Z,46.59
2018-05-09T05:58:08.112Z,46.50
2018-05-09T06:00:35.598Z,46.11
2018-05-09T06:03:03.054Z,45.18
2018-05-09T06:05:30.625Z,45.49
2018-05-09T06:07:58.066Z,45.06
2018-05-09T06:10:25.482Z,44.50
2018-05-09T06:12:53.894Z,44.22
2018-05-09T06:15:21.309Z,43.92
2018-05-09T06:17:48.741Z,43.75
2018-05-09T06:20:16.151Z,42.63
2018-05-09T06:22:43.587Z,42.74
2018-05-09T06:25:11.000Z,42.73
2018-05-09T06:27:38.441Z,42.08
2018-05-09T06:30:05.860Z,42.32
2018-05-09T06:32:33.299Z,41.80
2018-05-09T06:35:00.810Z,42.45
2018-05-09T06:37:28.222Z,41.62
2018-05-09T06:39:55.726Z,40.93
2018-05-09T06:42:23.157Z,41.12
2018-05-09T06:44:50.591Z,40.28
2018-05-09T06:47:18.101Z,40.17
2018-05-09T06:49:45.561Z,39.50
2018-05-09T06:52:12.976Z,39.33
2018-05-09T06:54:40.466Z,39.70
2018-05-09T06:57:07.874Z,38.66
2018-05-09T06:59:35.431Z,39.48
2018-05-09T07:02:03.733Z,39.36
2018-05-09T07:04:31.166Z,38.85
2018-05-09T07:06:58.573Z,38.83
2018-05-09T07:09:26.011Z,37.90
2018-05-09T07:11:53.481Z,37.89
2018-05-09T07:14:21.862Z,37.52
2018-05-09T07:16:49.320Z,37.41
2018-05-09T07:19:16.689Z,36.91
2018-05-09T07:21:44.125Z,36.51
2018-05-09T07:24:11.571Z,35.03
2018-05-09T07:26:39.065Z,35.13
2018-05-09T07:29:06.476Z,35.44
2018-05-09T07:31:33.953Z,33.95
2018-05-09T07:34:01.363Z,34.45
2018-05-09T07:36:28.870Z,34.15
2018-05-09T07:38:57.217Z,34.35
2018-05-09T07:41:24.707Z,34.79
2018-05-09T07:43:52.123Z,34.37
2018-05-09T07:46:19.558Z,34.57
2018-05-09T07:48:46.967Z,33.71
2018-05-09T07:51:14.416Z,33.96
2018-05-09T07:53:41.985Z,33.40
2018-05-09T07:56:09.429Z,33.90
2018-05-09T07:58:36.858Z,33.87
2018-05-09T08:01:05.282Z,33.21
2018-05-09T08:03:32.738Z,32.37
2018-05-09T08:06:00.329Z,32.24
2018-05-09T08:08:28.642Z,32.54
2018-05-09T08:10:56.129Z,32.18
2018-05-09T08:13:23.571Z,32.98
2018-05-09T08:15:50.989Z,32.80
2018-05-09T08:18:18.425Z,32.74
2018-05-09T08:20:45.848Z,33.91
2018-05-09T08:23:13.317Z,33.37
2018-05-09T08:25:41.703Z,31.53
2018-05-09T08:28:09.140Z,31.82
2018-05-09T08:30:36.549Z,31.25
2018-05-09T08:33:03.977Z,31.79
2018-05-09T08:35:31.414Z,30.94
2018-05-09T08:37:58.859Z,30.10
2018-05-09T08:40:26.271Z,30.39
2018-05-09T08:42:53.701Z,30.03
2018-05-09T08:45:21.142Z,29.93
2018-05-09T08:47:48.573Z,30.76
2018-05-09T08:50:16.052Z,31.17
2018-05-09T08:52:43.489Z,31.18
2018-05-09T08:55:10.966Z,30.89
2018-05-09T08:57:38.429Z,30.66
2018-05-09T09:00:05.849Z,29.83
2018-05-09T09:02:34.254Z,29.51
2018-05-09T09:05:01.694Z,29.93
2018-05-09T09:07:29.110Z,29.66
2018-05-09T09:09:57.556Z,29.21
2018-05-09T09:12:24.979Z,28.28
2018-05-09T09:14:52.417Z,28.79
2018-05-09T09:17:20.723Z,28.82
2018-05-09T09:19:49.110Z,29.09
2018-05-09T09:22:16.524Z,28.24
2018-05-09T09:24:44.954Z,29.00
2018-05-09T09:27:12.365Z,28.54
2018-05-09T09:29:39.871Z,28.76
2018-05-09T09:32:07.285Z,29.07
2018-05-09T09:34:34.747Z,29.07
2018-05-09T09:37:02.158Z,28.44
2018-05-09T09:39:29.577Z,27.41
2018-05-09T09:41:57.018Z,27.49
2018-05-09T09:44:24.446Z,28.21
2018-05-09T09:46:51.943Z,27.35
2018-05-09T09:49:19.298Z,28.08
2018-05-09T09:51:46.769Z,28.47
2018-05-09T09:54:14.177Z,28.23
2018-05-09T09:56:42.602Z,27.83
2018-05-09T09:59:10.061Z,28.85
2018-05-09T10:01:37.552Z,28.35
2018-05-09T10:04:05.865Z,27.04
2018-05-09T10:06:33.296Z,28.13
2018-05-09T10:09:01.747Z,27.02
2018-05-09T10:11:29.212Z,27.05
2018-05-09T10:13:56.622Z,28.11
2018-05-09T10:16:24.066Z,26.73
2018-05-09T10:18:51.495Z,27.53
2018-05-09T10:21:18.922Z,26.58
2018-05-09T10:23:46.370Z,26.88
2018-05-09T10:26:13.795Z,26.45
2018-05-09T10:28:41.241Z,27.49
2018-05-09T10:31:08.662Z,26.85
2018-05-09T10:33:36.198Z,26.76
2018-05-09T10:36:04.580Z,27.54
2018-05-09T10:38:32.958Z,26.66
2018-05-09T10:41:00.372Z,27.45
2018-05-09T10:43:27.817Z,26.75
2018-05-09T10:45:55.234Z,27.39
2018-05-09T10:48:22.677Z,26.40
2018-05-09T10:50:50.110Z,25.59
2018-05-09T10:53:17.534Z,25.83
2018-05-09T10:55:44.938Z,26.31
2018-05-09T10:58:12.385Z,27.00
2018-05-09T11:00:39.800Z,27.47
2018-05-09T11:03:07.264Z,26.90
2018-05-09T11:05:34.668Z,26.70
2018-05-09T11:08:02.098Z,27.31
2018-05-09T11:10:29.729Z,27.25
2018-05-09T11:12:57.111Z,26.87
2018-05-09T11:15:24.607Z,26.13
2018-05-09T11:17:52.058Z,26.16
2018-05-09T11:20:19.505Z,25.07
2018-05-09T11:22:46.969Z,26.91
2018-05-09T11:25:14.433Z,26.97
2018-05-09T11:27:41.858Z,27.72
2018-05-09T11:30:09.305Z,27.09
2018-05-09T11:32:36.718Z,27.57
2018-05-09T11:35:04.261Z,26.60
2018-05-09T11:37:31.776Z,27.11
2018-05-09T11:39:59.170Z,26.83
2018-05-09T11:42:26.600Z,26.79
2018-05-09T11:44:54.093Z,27.99
2018-05-09T11:47:21.543Z,27.37
2018-05-09T11:49:49.186Z,27.84
2018-05-09T11:52:16.598Z,26.92
2018-05-09T11:54:44.022Z,28.67
2018-05-09T11:57:13.417Z,26.82
2018-05-09T11:59:40.851Z,26.83
2018-05-09T12:02:08.291Z,27.20
2018-05-09T12:04:35.718Z,27.59
2018-05-09T12:07:03.155Z,27.48
2018-05-09T12:09:30.587Z,28.33
2018-05-09T12:11:58.030Z,27.81
2018-05-09T12:14:25.453Z,27.64
2018-05-09T12:16:52.886Z,26.83
2018-05-09T12:19:21.322Z,26.64
2018-05-09T12:21:49.679Z,28.22
2018-05-09T12:24:17.103Z,27.94
2018-05-09T12:26:44.547Z,28.26
2018-05-09T12:29:12.879Z,27.68
2018-05-09T12:31:41.866Z,27.04
2018-05-09T12:34:09.286Z,26.94
2018-05-09T12:36:37.199Z,27.18
2018-05-09T12:39:04.656Z,27.78
2018-05-09T12:41:32.082Z,26.97
2018-05-09T12:44:00.516Z,27.12
2018-05-09T12:46:27.981Z,27.88
2018-05-09T12:49:00.051Z,26.98
2018-05-09T12:51:28.811Z,27.11
2018-05-09T12:53:56.267Z,27.69
2018-05-09T12:56:23.738Z,27.59
2018-05-09T12:58:52.123Z,27.75
2018-05-09T13:01:19.540Z,27.42
2018-05-09T13:03:46.994Z,27.04
2018-05-09T13:06:14.402Z,26.81
2018-05-09T13:08:41.837Z,28.19
2018-05-09T13:11:09.269Z,27.17
2018-05-09T13:13:36.725Z,27.41
2018-05-09T13:16:04.134Z,26.52
2018-05-09T13:18:32.592Z,26.80
2018-05-09T13:21:00.945Z,27.45
2018-05-09T13:23:28.409Z,27.78
2018-05-09T13:25:55.924Z,26.70
2018-05-09T13:28:23.263Z,26.62
2018-05-09T13:30:50.725Z,27.35
2018-05-09T13:33:18.143Z,28.24
2018-05-09T13:35:45.579Z,27.98
2018-05-09T13:38:12.999Z,26.50
2018-05-09T13:40:40.446Z,26.27
2018-05-09T13:43:07.849Z,26.51
2018-05-09T13:45:35.298Z,25.83
2018-05-09T13:48:02.713Z,25.88
2018-05-09T13:50:30.157Z,24.69
2018-05-09T13:52:58.487Z,24.21
2018-05-09T13:55:25.934Z,23.96
2018-05-09T13:57:53.346Z,23.85
2018-05-09T14:00:20.787Z,22.82
2018-05-09T14:02:49.146Z,23.50
2018-05-09T14:05:17.482Z,21.98
2018-05-09T14:07:44.900Z,21.81
2018-05-09T14:10:12.334Z,19.97
2018-05-09T14:12:39.750Z,20.12
2018-05-09T14:15:07.197Z,19.60
2018-05-09T14:17:34.598Z,20.28
2018-05-09T14:20:03.089Z,21.11
2018-05-09T14:22:31.466Z,20.73
2018-05-09T14:24:59.803Z,19.83
2018-05-09T14:27:27.238Z,18.35
2018-05-09T14:29:54.654Z,18.27
2018-05-09T14:32:22.155Z,17.30
2018-05-09T14:34:49.514Z,16.51
2018-05-09T14:37:16.950Z,17.01
2018-05-09T14:39:44.366Z,17.87
2018-05-09T14:42:11.803Z,16.64
2018-05-09T14:44:40.203Z,16.58
2018-05-09T14:47:07.655Z,17.11
2018-05-09T14:49:36.039Z,15.98
2018-05-09T14:52:03.494Z,15.24
2018-05-09T14:54:30.929Z,13.25
2018-05-09T14:56:59.271Z,11.91
2018-05-09T14:59:26.705Z,11.23
2018-05-09T15:01:54.162Z,11.59
2018-05-09T15:04:21.585Z,12.86
2018-05-09T15:06:49.000Z,13.51
2018-05-09T15:09:16.447Z,12.32
2018-05-09T15:11:43.858Z,12.27
2018-05-09T15:14:12.214Z,11.12
2018-05-09T15:16:39.638Z,11.73
2018-05-09T15:19:07.072Z,12.75
2018-05-09T15:21:34.485Z,12.05
2018-05-09T15:24:02.952Z,11.15
2018-05-09T15:26:30.388Z,11.81
2018-05-09T15:29:02.646Z,12.04
2018-05-09T15:31:30.063Z,9.58
2018-05-09T15:33:59.528Z,10.13
2018-05-09T15:36:31.742Z,11.65
2018-05-09T15:38:59.256Z,9.39
2018-05-09T15:41:26.622Z,9.67
2018-05-09T15:43:54.072Z,11.18
2018-05-09T15:46:25.472Z,10.20
2018-05-09T15:48:52.916Z,10.23
2018-05-09T15:51:20.331Z,10.86
2018-05-09T15:53:48.722Z,10.40
2018-05-09T15:56:16.540Z,10.20
2018-05-09T15:58:44.903Z,12.14
2018-05-09T16:01:12.342Z,12.45
2018-05-09T16:03:39.753Z,11.40
2018-05-09T16:06:07.697Z,12.60
2018-05-09T16:08:35.113Z,11.20
2018-05-09T16:11:02.558Z,11.28
2018-05-09T16:13:29.971Z,12.49
2018-05-09T16:15:57.413Z,14.00
2018-05-09T16:18:24.850Z,12.51
2018-05-09T16:20:52.292Z,15.01
2018-05-09T16:23:19.709Z,12.92
2018-05-09T16:25:47.185Z,13.70
2018-05-09T16:28:14.593Z,14.63
2018-05-09T16:30:42.034Z,14.56
2018-05-09T16:33:10.413Z,14.24
2018-05-09T16:35:38.818Z,13.02
2018-05-09T16:38:06.240Z,14.20
2018-05-09T16:40:33.706Z,15.05
2018-05-09T16:43:01.121Z,15.07
2018-05-09T16:45:28.540Z,13.06
2018-05-09T16:47:55.973Z,12.74
2018-05-09T16:50:25.377Z,14.06
2018-05-09T16:52:53.781Z,14.11
2018-05-09T16:55:21.230Z,15.70
2018-05-09T16:57:48.670Z,14.67
2018-05-09T17:00:17.049Z,15.64
2018-05-09T17:02:44.488Z,14.49
2018-05-09T17:05:11.961Z,17.35
2018-05-09T17:07:39.399Z,24.98
2018-05-09T17:10:07.823Z,29.98
2018-05-09T17:12:35.255Z,32.87
2018-05-09T17:15:02.707Z,33.63
2018-05-09T17:17:30.190Z,34.32
2018-05-09T17:19:57.614Z,35.29
2018-05-09T17:22:33.010Z,36.11
2018-05-09T17:25:01.338Z,36.86
2018-05-09T17:27:28.791Z,37.08
2018-05-09T17:29:59.540Z,36.98
2018-05-09T17:32:26.995Z,37.39
2018-05-09T17:34:55.314Z,37.86
2018-05-09T17:37:22.732Z,38.57
2018-05-09T17:39:50.165Z,38.53
2018-05-09T17:42:19.594Z,38.21
2018-05-09T17:44:47.036Z,39.17
2018-05-09T17:47:14.462Z,39.92
2018-05-09T17:49:41.902Z,40.03
2018-05-09T17:52:09.310Z,40.17
2018-05-09T17:54:36.751Z,40.51
2018-05-09T17:57:04.170Z,40.66
2018-05-09T17:59:31.601Z,40.96
2018-05-09T18:01:59.960Z,41.36
2018-05-09T18:04:27.402Z,41.71
2018-05-09T18:06:54.810Z,42.06
2018-05-09T18:09:22.264Z,42.16
2018-05-09T18:11:49.688Z,42.42
2018-05-09T18:14:17.094Z,42.43
2018-05-09T18:16:44.531Z,42.97
2018-05-09T18:19:12.877Z,43.48
2018-05-09T18:21:41.233Z,43.61
2018-05-09T18:24:08.650Z,44.22
2018-05-09T18:26:36.090Z,44.11
2018-05-09T18:29:05.420Z,44.75
2018-05-09T18:31:33.778Z,44.53
2018-05-09T18:34:01.204Z,44.79
2018-05-09T18:36:28.646Z,44.84
2018-05-09T18:38:56.066Z,45.31
2018-05-09T18:41:23.506Z,45.68
2018-05-09T18:43:51.841Z,45.86
2018-05-09T18:46:19.279Z,46.09
2018-05-09T18:48:46.696Z,46.84
2018-05-09T18:51:14.138Z,47.06
2018-05-09T18:53:42.486Z,46.99
2018-05-09T18:56:09.921Z,47.52
2018-05-09T18:58:38.350Z,47.95
2018-05-09T19:01:05.802Z,48.18
2018-05-09T19:03:33.242Z,48.56
2018-05-09T19:06:00.661Z,48.45
2018-05-09T19:08:29.110Z,48.48
2018-05-09T19:10:56.540Z,48.88
2018-05-09T19:13:23.984Z,49.00
2018-05-09T19:15:51.394Z,49.23
2018-05-09T19:18:18.833Z,49.17
2018-05-09T19:20:46.262Z,48.90
2018-05-09T19:23:13.792Z,48.78
2018-05-09T19:25:41.129Z,48.98
2018-05-09T19:28:09.579Z,48.93
2018-05-09T19:30:36.986Z,48.95
2018-05-09T19:33:04.426Z,48.98
2018-05-09T19:35:31.837Z,49.33
2018-05-09T19:37:59.300Z,49.51
2018-05-09T19:40:26.706Z,49.56
2018-05-09T19:42:54.122Z,49.91
2018-05-09T19:45:21.564Z,49.79
2018-05-09T19:47:48.995Z,49.92
2018-05-09T19:50:16.417Z,49.90
2018-05-09T19:52:43.840Z,49.65
2018-05-09T19:55:11.317Z,50.15
2018-05-09T19:57:38.693Z,50.34
2018-05-09T20:00:07.337Z,50.70
2018-05-09T20:02:34.746Z,50.38
2018-05-09T20:05:02.185Z,50.50
2018-05-09T20:07:29.608Z,50.62
2018-05-09T20:09:57.058Z,51.14
2018-05-09T20:12:25.404Z,50.84
2018-05-09T20:14:54.847Z,50.76
2018-05-09T20:17:22.259Z,50.78
2018-05-09T20:19:49.745Z,51.12
2018-05-09T20:22:17.158Z,51.63
2018-05-09T20:24:44.579Z,51.77
2018-05-09T20:27:12.010Z,51.71
2018-05-09T20:29:39.426Z,51.87
2018-05-09T20:32:19.903Z,52.17
2018-05-09T20:34:47.322Z,51.92
2018-05-09T20:37:14.767Z,52.21
2018-05-09T20:39:43.935Z,52.35
2018-05-09T20:42:12.273Z,52.79
2018-05-09T20:44:39.694Z,52.83
2018-05-09T20:47:07.162Z,52.56
2018-05-09T20:54:18.369Z,53.55
2018-05-09T20:56:45.821Z,53.82
2018-05-09T20:59:13.249Z,53.46
2018-05-09T21:01:47.317Z,53.08
2018-05-09T21:04:14.750Z,53.71
2018-05-09T21:06:42.185Z,53.68
2018-05-09T21:09:11.614Z,53.67
2018-05-09T21:14:35.596Z,53.93
2018-05-09T21:17:03.985Z,53.55
2018-05-09T21:19:31.421Z,53.26
2018-05-09T21:21:58.896Z,53.43
2018-05-09T21:24:27.114Z,53.86
2018-05-09T21:26:55.502Z,54.17
2018-05-09T21:29:22.954Z,54.05
2018-05-09T21:31:51.291Z,54.52
2018-05-09T21:34:18.746Z,54.13
2018-05-09T21:36:46.199Z,54.04
2018-05-09T21:39:13.665Z,55.06
2018-05-09T21:41:41.077Z,54.68
2018-05-09T21:44:08.521Z,54.17
2018-05-09T21:46:35.941Z,54.46
2018-05-09T21:49:04.235Z,55.27
2018-05-09T21:51:33.550Z,55.24
2018-05-09T21:54:00.994Z,54.71
2018-05-09T21:56:28.408Z,54.78
2018-05-09T21:58:56.882Z,55.07
2018-05-09T22:01:24.307Z,55.10
2018-05-09T22:03:51.724Z,55.00
2018-05-09T22:06:19.157Z,55.45
2018-05-09T22:08:46.567Z,55.20
2018-05-09T22:11:14.009Z,55.35
2018-05-09T22:13:41.422Z,55.32
2018-05-09T22:16:08.861Z,54.85
2018-05-09T22:18:36.274Z,55.17
2018-05-09T22:21:03.718Z,55.23
2018-05-09T22:23:31.171Z,55.57
2018-05-09T22:25:58.616Z,55.46
2018-05-09T22:28:26.028Z,56.31
2018-05-09T22:30:53.458Z,57.17
2018-05-09T22:33:20.882Z,57.46
2018-05-09T22:35:49.334Z,57.73
2018-05-09T22:38:16.761Z,57.35
2018-05-09T22:40:44.179Z,58.40
2018-05-09T22:43:11.629Z,58.16
2018-05-09T22:45:39.045Z,58.44
2018-05-09T22:48:06.478Z,58.44
2018-05-09T22:50:33.893Z,58.05
2018-05-09T22:53:01.338Z,58.37
2018-05-09T22:55:28.753Z,58.11
2018-05-09T22:57:56.210Z,57.44
2018-05-09T23:00:23.626Z,57.47
2018-05-09T23:02:51.074Z,57.30
2018-05-09T23:05:18.494Z,56.96
2018-05-09T23:07:47.914Z,56.81
2018-05-09T23:10:15.418Z,56.43
2018-05-09T23:12:42.831Z,56.14
2018-05-09T23:15:10.237Z,56.22
2018-05-09T23:17:38.646Z,57.26
2018-05-09T23:20:06.067Z,57.43
2018-05-09T23:22:33.531Z,57.38
2018-05-09T23:25:00.942Z,57.73
2018-05-09T23:27:29.266Z,58.09
2018-05-09T23:29:57.618Z,58.34
2018-05-09T23:32:25.030Z,58.54
2018-05-09T23:34:52.470Z,58.50
2018-05-09T23:37:19.889Z,59.25
2018-05-09T23:39:47.326Z,59.37
2018-05-09T23:42:14.739Z,59.91
2018-05-09T23:44:42.183Z,59.73
2018-05-09T23:47:09.594Z,60.24
2018-05-09T23:49:37.026Z,59.77
2018-05-09T23:52:04.501Z,59.77
2018-05-09T23:54:31.928Z,59.89
2018-05-09T23:57:00.239Z,59.78
2018-05-09T23:59:28.026Z,59.37
